Time;durP1;ratioP1;P1;durP2;ratioP2;P2;SDS_P1;SDS_P2;PMS_P1;PMS_P2;Temp;Humidity;BMP_temperature;BMP_pressure;BME280_temperature;BME280_humidity;BME280_pressure;Samples;Min_cycle;Max_cycle;Signal;HPM_P1;HPM_P2
2022/10/22 00:00:25;;;;;;;1.00;0.90;;;;;19.10;99879.00;;;;2070758;28;20198;-51
2022/10/22 00:01:27;;;;;;;1.13;0.90;;;;;19.10;99892.00;;;;2068389;28;20206;-51
2022/10/22 00:02:27;;;;;;;1.58;0.80;;;;;19.10;99894.00;;;;2061938;28;20683;-52
2022/10/22 00:03:27;;;;;;;1.10;0.60;;;;;19.10;99891.00;;;;2062478;28;20207;-52
2022/10/22 00:04:28;;;;;;;2.70;0.80;;;;;19.10;99896.00;;;;2062607;28;20594;-51
2022/10/22 00:05:28;;;;;;;1.97;1.00;;;;;19.10;99883.00;;;;2062745;28;20202;-51
2022/10/22 00:06:28;;;;;;;1.00;0.80;;;;;19.10;99904.00;;;;2062302;28;20213;-50
2022/10/22 00:07:29;;;;;;;0.80;0.70;;;;;19.10;99892.00;;;;2062703;28;20235;-51
2022/10/22 00:08:29;;;;;;;0.93;0.77;;;;;19.10;99897.00;;;;2062348;28;20219;-52
2022/10/22 00:09:29;;;;;;;0.90;0.73;;;;;19.10;99891.00;;;;2062761;28;20210;-51
2022/10/22 00:10:30;;;;;;;0.90;0.80;;;;;19.10;99896.00;;;;2062532;28;20218;-51
2022/10/22 00:11:30;;;;;;;1.23;1.13;;;;;19.10;99899.00;;;;2062177;28;20233;-51
2022/10/22 00:12:30;;;;;;;1.37;0.93;;;;;19.10;99895.00;;;;2061808;28;20298;-51
2022/10/22 00:13:31;;;;;;;0.80;0.70;;;;;19.10;99890.00;;;;2062497;28;20350;-52
2022/10/22 00:14:31;;;;;;;1.00;0.90;;;;;19.10;99892.00;;;;2062520;28;20229;-52
2022/10/22 00:15:31;;;;;;;1.23;1.00;;;;;19.10;99894.00;;;;2062590;28;20235;-53
2022/10/22 00:16:32;;;;;;;1.03;0.90;;;;;19.10;99904.00;;;;2061979;28;20314;-51
2022/10/22 00:17:32;;;;;;;1.10;1.00;;;;;19.10;99905.00;;;;2062490;28;20215;-52
2022/10/22 00:18:32;;;;;;;1.07;0.97;;;;;19.10;99911.00;;;;2062672;28;20216;-51
2022/10/22 00:19:33;;;;;;;1.00;0.80;;;;;19.10;99899.00;;;;2065254;28;20234;-50
2022/10/22 00:20:33;;;;;;;2.67;1.07;;;;;19.10;99901.00;;;;2066730;28;20221;-50
2022/10/22 00:21:34;;;;;;;1.10;0.70;;;;;19.10;99906.00;;;;2070793;28;20301;-52
2022/10/22 00:22:35;;;;;;;1.50;0.77;;;;;19.10;99908.00;;;;2069689;28;20210;-52
2022/10/22 00:23:35;;;;;;;1.50;0.87;;;;;19.10;99901.00;;;;2063890;28;20245;-51
2022/10/22 00:24:35;;;;;;;0.97;0.77;;;;;19.10;99912.00;;;;2070129;28;20217;-52
2022/10/22 00:25:36;;;;;;;1.33;0.90;;;;;19.10;99906.00;;;;2070719;28;20202;-52
2022/10/22 00:26:38;;;;;;;1.00;0.80;;;;;19.10;99912.00;;;;2064132;28;20694;-52
2022/10/22 00:27:38;;;;;;;1.40;1.00;;;;;19.10;99921.00;;;;2070387;28;21216;-51
2022/10/22 00:28:38;;;;;;;1.13;0.83;;;;;19.10;99922.00;;;;2066607;28;20225;-51
2022/10/22 00:29:39;;;;;;;1.10;0.80;;;;;19.10;99912.00;;;;2063151;28;20226;-52
2022/10/22 00:30:39;;;;;;;1.20;0.90;;;;;19.10;99915.00;;;;2069672;28;20689;-51
2022/10/22 00:31:40;;;;;;;1.13;0.87;;;;;19.10;99913.00;;;;2070427;28;20893;-52
2022/10/22 00:32:40;;;;;;;1.07;0.90;;;;;19.10;99909.00;;;;2069748;28;20240;-52
2022/10/22 00:33:40;;;;;;;0.90;0.63;;;;;19.10;99915.00;;;;2069447;28;20223;-52
2022/10/22 00:34:40;;;;;;;1.63;1.00;;;;;19.10;99917.00;;;;2070869;28;20217;-52
2022/10/22 00:35:42;;;;;;;1.67;0.90;;;;;19.10;99915.00;;;;2070032;28;20658;-52
2022/10/22 00:36:43;;;;;;;1.10;1.00;;;;;19.10;99931.00;;;;2069874;28;20746;-53
2022/10/22 00:37:43;;;;;;;2.13;1.00;;;;;19.10;99908.00;;;;2069885;28;20300;-52
2022/10/22 00:38:43;;;;;;;0.80;0.60;;;;;19.10;99911.00;;;;2069722;28;20218;-52
2022/10/22 00:39:44;;;;;;;1.43;0.97;;;;;19.10;99917.00;;;;2070157;28;20320;-52
2022/10/22 00:40:44;;;;;;;1.07;0.90;;;;;19.10;99912.00;;;;2070682;28;20218;-53
2022/10/22 00:41:45;;;;;;;0.93;0.80;;;;;19.10;99918.00;;;;2069508;28;20369;-52
2022/10/22 00:42:45;;;;;;;1.08;0.68;;;;;19.10;99918.00;;;;2069724;28;20206;-52
2022/10/22 00:43:57;;;;;;;1.10;0.80;;;;;19.10;99919.00;;;;2067652;28;20224;-51
2022/10/22 00:45:07;;;;;;;1.33;0.95;;;;;19.10;99908.00;;;;2069415;28;20222;-52
2022/10/22 00:46:07;;;;;;;1.10;0.80;;;;;19.10;99908.00;;;;2069304;28;20218;-52
2022/10/22 00:47:07;;;;;;;0.90;0.70;;;;;19.10;99900.00;;;;2069767;28;20218;-52
2022/10/22 00:48:09;;;;;;;1.70;0.93;;;;;19.10;99909.00;;;;2062489;28;20218;-51
2022/10/22 00:49:10;;;;;;;1.10;0.95;;;;;19.10;99906.00;;;;2069057;28;20218;-51
2022/10/22 00:50:26;;;;;;;1.77;1.10;;;;;19.10;99903.00;;;;2060826;28;20246;-51
2022/10/22 00:51:28;;;;;;;1.17;0.90;;;;;19.10;99911.00;;;;2062220;28;20403;-51
2022/10/22 00:52:29;;;;;;;1.10;0.80;;;;;19.10;99906.00;;;;2052847;28;20204;-50
2022/10/22 00:53:36;;;;;;;0.80;0.70;;;;;19.10;99899.00;;;;2061476;28;20210;-50
2022/10/22 00:54:37;;;;;;;1.15;0.70;;;;;19.10;99894.00;;;;2068901;28;20281;-51
2022/10/22 00:55:37;;;;;;;1.10;0.97;;;;;19.10;99895.00;;;;2069177;28;20291;-52
2022/10/22 00:56:38;;;;;;;1.07;0.70;;;;;19.10;99887.00;;;;2069296;28;20225;-52
2022/10/22 00:57:38;;;;;;;0.77;0.67;;;;;19.10;99906.00;;;;2069260;28;20768;-52
2022/10/22 00:58:42;;;;;;;0.83;0.70;;;;;19.10;99904.00;;;;2069120;28;20244;-51
2022/10/22 00:59:43;;;;;;;1.10;1.00;;;;;19.10;99901.00;;;;2068832;28;20214;-53
2022/10/22 01:00:43;;;;;;;1.57;1.07;;;;;19.00;99903.00;;;;2069036;28;20221;-52
2022/10/22 01:01:44;;;;;;;1.13;0.90;;;;;19.10;99899.00;;;;2069088;28;20214;-51
2022/10/22 01:02:44;;;;;;;1.00;0.73;;;;;19.10;99884.00;;;;2066879;28;20214;-52
2022/10/22 01:03:44;;;;;;;1.00;0.73;;;;;19.10;99892.00;;;;2068964;28;20210;-53
2022/10/22 01:04:45;;;;;;;1.13;0.90;;;;;19.10;99897.00;;;;2069876;28;20211;-51
2022/10/22 01:05:53;;;;;;;1.50;1.10;;;;;19.10;99900.00;;;;2063713;28;20221;-51
2022/10/22 01:06:53;;;;;;;1.10;0.80;;;;;19.10;99896.00;;;;2061519;28;20214;-51
2022/10/22 01:07:53;;;;;;;1.43;0.90;;;;;19.10;99892.00;;;;2061438;28;20226;-52
2022/10/22 01:09:27;;;;;;;0.90;0.80;;;;;19.10;99897.00;;;;2053674;28;20223;-52
2022/10/22 01:11:05;;;;;;;1.88;1.00;;;;;19.10;99897.00;;;;2051936;28;20223;-52
2022/10/22 01:12:11;;;;;;;1.10;0.80;;;;;19.10;99896.00;;;;2050338;28;20735;-52
2022/10/22 01:13:43;;;;;;;1.23;0.93;;;;;19.10;99886.00;;;;2049648;28;20223;-50
2022/10/22 01:14:53;;;;;;;1.13;0.90;;;;;19.10;99891.00;;;;2059168;28;20309;-51
2022/10/22 01:16:11;;;;;;;1.42;0.95;;;;;19.10;99887.00;;;;2065993;28;20221;-52
2022/10/22 01:17:33;;;;;;;1.05;0.63;;;;;19.10;99892.00;;;;2060841;28;20617;-52
2022/10/22 01:18:37;;;;;;;1.88;0.90;;;;;19.10;99888.00;;;;2056377;28;20246;-51
2022/10/22 01:19:43;;;;;;;1.10;0.80;;;;;19.10;99887.00;;;;2058440;28;20223;-51
2022/10/22 01:20:59;;;;;;;0.95;0.70;;;;;19.10;99891.00;;;;2067965;28;20690;-52
2022/10/22 01:22:04;;;;;;;1.02;0.80;;;;;19.10;99896.00;;;;2066543;28;20218;-50
2022/10/22 01:23:13;;;;;;;1.00;0.90;;;;;19.10;99890.00;;;;2069293;28;20218;-50
2022/10/22 01:24:34;;;;;;;1.08;0.98;;;;;19.10;99882.00;;;;2070610;28;20768;-53
2022/10/22 01:25:36;;;;;;;1.25;0.88;;;;;19.10;99885.00;;;;2063035;28;20280;-51
2022/10/22 01:27:15;;;;;;;1.30;0.88;;;;;19.10;99883.00;;;;2042351;28;20224;-50
2022/10/22 01:28:36;;;;;;;1.13;0.80;;;;;19.10;99887.00;;;;2066071;28;20256;-51
2022/10/22 01:29:48;;;;;;;0.90;0.70;;;;;19.10;99891.00;;;;2068855;28;20211;-51
2022/10/22 01:30:49;;;;;;;0.90;0.70;;;;;19.10;99888.00;;;;2071326;28;20225;-52
2022/10/22 01:31:53;;;;;;;1.10;0.63;;;;;19.10;99868.00;;;;2070373;28;20213;-51
2022/10/22 01:32:55;;;;;;;1.15;0.88;;;;;19.10;99880.00;;;;2052596;28;20252;-51
2022/10/22 01:33:55;;;;;;;1.33;1.08;;;;;19.10;99890.00;;;;2047187;28;20223;-51
2022/10/22 01:34:59;;;;;;;1.37;0.90;;;;;19.10;99881.00;;;;2054880;28;20225;-51
2022/10/22 01:35:59;;;;;;;1.25;0.80;;;;;19.10;99853.00;;;;2062880;28;20219;-51
2022/10/22 01:37:00;;;;;;;1.73;1.07;;;;;19.10;99882.00;;;;2062924;28;20310;-51
2022/10/22 01:38:01;;;;;;;1.27;1.10;;;;;19.10;99875.00;;;;2054380;28;20300;-52
2022/10/22 01:39:02;;;;;;;2.45;0.80;;;;;19.10;99870.00;;;;2047450;28;20208;-52
2022/10/22 01:40:02;;;;;;;1.57;1.00;;;;;19.10;99870.00;;;;2047126;28;20215;-51
2022/10/22 01:41:03;;;;;;;1.77;1.17;;;;;18.80;99878.00;;;;2047142;28;20223;-52
2022/10/22 01:42:03;;;;;;;1.03;0.80;;;;;19.10;99878.00;;;;2054302;28;20207;-50
2022/10/22 01:43:06;;;;;;;1.20;0.90;;;;;19.10;99878.00;;;;2063974;28;20218;-51
2022/10/22 01:44:06;;;;;;;1.60;0.85;;;;;19.10;99874.00;;;;2063356;28;20361;-52
2022/10/22 01:45:11;;;;;;;0.90;0.70;;;;;18.90;99876.00;;;;2063395;28;20222;-50
2022/10/22 01:46:11;;;;;;;1.30;0.95;;;;;19.10;99870.00;;;;2068771;28;20228;-52
2022/10/22 01:47:38;;;;;;;0.87;0.70;;;;;19.10;99872.00;;;;2071877;28;20243;-51
2022/10/22 01:48:49;;;;;;;1.05;0.90;;;;;19.10;99876.00;;;;2071093;28;20620;-50
2022/10/22 01:50:23;;;;;;;1.10;0.80;;;;;19.10;99881.00;;;;2056483;28;20219;-51
2022/10/22 01:51:26;;;;;;;1.40;0.88;;;;;19.10;99872.00;;;;2065969;28;20597;-51
2022/10/22 01:52:34;;;;;;;1.10;0.90;;;;;19.10;99870.00;;;;2070257;28;20218;-50
2022/10/22 01:53:40;;;;;;;1.13;0.80;;;;;19.10;99869.00;;;;2070664;28;20218;-50
2022/10/22 01:54:50;;;;;;;1.60;0.88;;;;;19.10;99876.00;;;;2069953;28;20241;-51
2022/10/22 01:55:55;;;;;;;0.90;0.80;;;;;19.10;99870.00;;;;2066011;28;20266;-51
2022/10/22 01:57:16;;;;;;;1.10;0.82;;;;;19.10;99869.00;;;;2059028;28;20266;-51
2022/10/22 01:58:26;;;;;;;1.10;0.70;;;;;19.10;99868.00;;;;2067269;28;20218;-51
2022/10/22 01:59:44;;;;;;;0.80;0.75;;;;;19.10;99872.00;;;;2071191;28;20252;-52
2022/10/22 02:00:58;;;;;;;1.30;0.90;;;;;19.10;99871.00;;;;2071658;28;20687;-50
2022/10/22 02:02:10;;;;;;;1.20;0.95;;;;;19.10;99869.00;;;;2068684;28;20214;-52
2022/10/22 02:03:14;;;;;;;1.15;1.05;;;;;19.10;99861.00;;;;2062500;28;20222;-51
2022/10/22 02:04:19;;;;;;;1.17;0.90;;;;;19.10;99865.00;;;;2054795;28;20728;-51
2022/10/22 02:05:27;;;;;;;1.17;0.70;;;;;19.10;99867.00;;;;2054429;28;20843;-51
2022/10/22 02:06:27;;;;;;;1.10;0.80;;;;;19.10;99869.00;;;;2059307;28;20238;-50
2022/10/22 02:07:31;;;;;;;1.30;0.70;;;;;19.10;99868.00;;;;2062904;28;20220;-51
2022/10/22 02:08:32;;;;;;;2.85;0.80;;;;;19.10;99862.00;;;;2062909;28;20629;-51
2022/10/22 02:09:32;;;;;;;0.93;0.75;;;;;19.10;99858.00;;;;2070847;28;20253;-52
2022/10/22 02:10:33;;;;;;;2.13;1.10;;;;;19.10;99852.00;;;;2062682;28;20214;-52
2022/10/22 02:11:33;;;;;;;1.20;1.00;;;;;19.10;99859.00;;;;2054427;28;20428;-51
2022/10/22 02:12:33;;;;;;;1.00;0.80;;;;;19.10;99860.00;;;;2052981;28;20669;-55
2022/10/22 02:13:42;;;;;;;0.90;0.80;;;;;19.10;99847.00;;;;2070880;28;20225;-53
2022/10/22 02:14:42;;;;;;;1.10;0.82;;;;;19.10;99863.00;;;;2055766;28;20305;-52
2022/10/22 02:15:43;;;;;;;0.87;0.73;;;;;19.10;99867.00;;;;2055762;28;20207;-51
2022/10/22 02:16:44;;;;;;;1.47;1.07;;;;;19.10;99866.00;;;;2062507;28;20770;-51
2022/10/22 02:17:45;;;;;;;1.00;0.90;;;;;19.10;99868.00;;;;2062801;28;20461;-50
2022/10/22 02:18:45;;;;;;;1.10;1.00;;;;;19.10;99872.00;;;;2049047;28;20236;-50
2022/10/22 02:19:53;;;;;;;1.20;0.90;;;;;18.40;99873.00;;;;2047743;28;20236;-50
2022/10/22 02:20:54;;;;;;;1.00;0.77;;;;;19.10;99871.00;;;;2068123;28;20261;-51
2022/10/22 02:21:55;;;;;;;1.03;0.80;;;;;19.10;99860.00;;;;2068796;28;20225;-51
2022/10/22 02:22:55;;;;;;;1.03;0.80;;;;;19.10;99859.00;;;;2070942;28;20472;-50
2022/10/22 02:23:55;;;;;;;1.00;0.90;;;;;19.10;99866.00;;;;2070747;28;20220;-50
2022/10/22 02:24:56;;;;;;;1.50;0.73;;;;;19.10;99875.00;;;;2062886;28;20215;-51
2022/10/22 02:26:02;;;;;;;1.27;1.00;;;;;19.10;99869.00;;;;2071637;28;20305;-50
2022/10/22 02:27:14;;;;;;;1.00;0.65;;;;;19.10;99861.00;;;;2071380;28;20242;-51
2022/10/22 02:28:18;;;;;;;1.00;0.90;;;;;19.10;99873.00;;;;2061512;28;20615;-49
2022/10/22 02:29:27;;;;;;;1.02;0.90;;;;;19.10;99870.00;;;;2048011;28;20232;-51
2022/10/22 02:30:28;;;;;;;1.10;0.80;;;;;19.10;99875.00;;;;2062163;28;20214;-51
2022/10/22 02:31:30;;;;;;;1.50;1.00;;;;;19.10;99871.00;;;;2062118;28;20215;-51
2022/10/22 02:32:42;;;;;;;1.00;0.80;;;;;19.10;99872.00;;;;2058180;28;20222;-50
2022/10/22 02:33:45;;;;;;;1.83;0.82;;;;;19.10;99861.00;;;;2065663;28;20222;-51
2022/10/22 02:34:46;;;;;;;2.05;1.10;;;;;19.10;99832.00;;;;2062891;28;20222;-50
2022/10/22 02:35:46;;;;;;;0.80;0.70;;;;;19.10;99866.00;;;;2044962;28;20211;-51
2022/10/22 02:36:46;;;;;;;1.83;0.97;;;;;19.10;99863.00;;;;2046706;28;20226;-50
2022/10/22 02:37:47;;;;;;;1.70;1.33;;;;;19.10;99864.00;;;;2061608;28;20206;-50
2022/10/22 02:38:47;;;;;;;0.90;0.77;;;;;19.10;99876.00;;;;2070389;28;20696;-51
2022/10/22 02:39:47;;;;;;;1.00;0.80;;;;;19.10;99874.00;;;;2062656;28;20647;-51
2022/10/22 02:40:48;;;;;;;0.90;0.80;;;;;19.10;99863.00;;;;2062900;28;20273;-51
2022/10/22 02:41:48;;;;;;;0.83;0.77;;;;;19.10;99876.00;;;;2062005;28;20239;-52
2022/10/22 02:42:48;;;;;;;1.50;0.93;;;;;19.10;99882.00;;;;2063338;28;20257;-52
2022/10/22 02:43:52;;;;;;;1.17;0.77;;;;;19.10;99878.00;;;;2062735;28;20430;-52
2022/10/22 02:44:52;;;;;;;0.88;0.75;;;;;19.10;99881.00;;;;2063383;28;20210;-51
2022/10/22 02:45:52;;;;;;;1.60;1.20;;;;;19.10;99874.00;;;;2063124;28;20688;-51
2022/10/22 02:46:53;;;;;;;1.20;1.00;;;;;19.10;99885.00;;;;2062726;28;20199;-50
2022/10/22 02:47:53;;;;;;;1.10;0.90;;;;;19.10;99877.00;;;;2062841;28;20249;-50
2022/10/22 02:48:53;;;;;;;1.30;1.00;;;;;19.10;99882.00;;;;2063151;28;20207;-51
2022/10/22 02:49:53;;;;;;;1.50;0.80;;;;;19.10;99788.00;;;;2062754;28;20277;-52
2022/10/22 02:50:54;;;;;;;1.30;1.00;;;;;19.10;99888.00;;;;2067376;28;20218;-50
2022/10/22 02:51:54;;;;;;;1.30;0.87;;;;;19.10;99887.00;;;;2070315;28;20626;-51
2022/10/22 02:52:55;;;;;;;1.17;1.00;;;;;19.10;99884.00;;;;2071169;28;20206;-51
2022/10/22 02:53:55;;;;;;;1.53;0.80;;;;;19.10;99884.00;;;;2071156;28;20206;-52
2022/10/22 02:54:55;;;;;;;1.00;0.80;;;;;19.10;99886.00;;;;2071444;28;20835;-51
2022/10/22 02:55:56;;;;;;;1.03;0.83;;;;;19.10;99883.00;;;;2071529;28;20698;-52
2022/10/22 02:56:56;;;;;;;1.47;1.10;;;;;19.10;99888.00;;;;2071243;28;20222;-52
2022/10/22 02:57:56;;;;;;;1.37;0.83;;;;;19.10;99884.00;;;;2071383;28;20214;-51
2022/10/22 02:58:57;;;;;;;1.20;0.90;;;;;19.10;99880.00;;;;2071423;28;20266;-50
2022/10/22 02:59:57;;;;;;;1.73;0.90;;;;;19.10;99886.00;;;;2070171;28;20226;-51
2022/10/22 03:00:57;;;;;;;1.00;0.90;;;;;19.10;99891.00;;;;2070896;28;20706;-50
2022/10/22 03:01:57;;;;;;;1.00;0.87;;;;;19.10;99884.00;;;;2070459;28;20304;-52
2022/10/22 03:02:58;;;;;;;1.00;0.60;;;;;19.10;99887.00;;;;2071566;28;20848;-51
2022/10/22 03:03:58;;;;;;;1.27;0.90;;;;;19.10;99884.00;;;;2071344;28;21009;-52
2022/10/22 03:04:58;;;;;;;1.43;0.83;;;;;19.10;99890.00;;;;2070975;28;20247;-49
2022/10/22 03:05:59;;;;;;;0.90;0.70;;;;;19.10;99900.00;;;;2070736;28;20314;-51
2022/10/22 03:06:59;;;;;;;1.10;0.80;;;;;19.10;99892.00;;;;2071143;28;20214;-52
2022/10/22 03:07:59;;;;;;;1.27;0.90;;;;;19.10;99894.00;;;;2071267;28;20211;-51
2022/10/22 03:09:00;;;;;;;1.90;1.03;;;;;19.10;99900.00;;;;2071423;28;20706;-51
2022/10/22 03:10:00;;;;;;;1.00;0.80;;;;;19.10;99883.00;;;;2071336;28;20777;-51
2022/10/22 03:11:00;;;;;;;1.70;0.90;;;;;19.10;99897.00;;;;2071197;28;20210;-51
2022/10/22 03:12:01;;;;;;;1.43;0.90;;;;;19.10;99892.00;;;;2070522;28;20364;-52
2022/10/22 03:13:01;;;;;;;1.00;0.90;;;;;19.10;99891.00;;;;2063433;28;20259;-50
2022/10/22 03:14:01;;;;;;;1.00;0.80;;;;;19.10;99895.00;;;;2064726;28;22814;-50
2022/10/22 03:15:02;;;;;;;1.30;0.80;;;;;19.10;99890.00;;;;2070880;28;20269;-50
2022/10/22 03:16:02;;;;;;;1.00;0.80;;;;;19.10;99891.00;;;;2067747;28;20276;-51
2022/10/22 03:17:03;;;;;;;1.03;0.90;;;;;19.10;99896.00;;;;2063190;28;20697;-52
2022/10/22 03:18:03;;;;;;;1.13;0.73;;;;;19.10;99896.00;;;;2062815;28;20218;-52
2022/10/22 03:19:03;;;;;;;1.00;0.90;;;;;19.10;99890.00;;;;2063082;28;20233;-50
2022/10/22 03:20:04;;;;;;;0.90;0.80;;;;;19.10;99882.00;;;;2063353;28;20221;-52
2022/10/22 03:21:06;;;;;;;1.03;0.90;;;;;19.10;99886.00;;;;2063276;28;20220;-50
2022/10/22 03:22:12;;;;;;;2.15;0.80;;;;;19.10;99888.00;;;;2061274;28;20308;-50
2022/10/22 03:23:13;;;;;;;1.77;1.00;;;;;19.10;99894.00;;;;2054454;28;20692;-51
2022/10/22 03:24:16;;;;;;;0.80;0.70;;;;;19.10;99918.00;;;;2046645;28;20290;-56
2022/10/22 03:25:20;;;;;;;1.52;0.90;;;;;19.10;99900.00;;;;2054122;28;20214;-50
2022/10/22 03:26:20;;;;;;;1.10;1.00;;;;;18.90;99897.00;;;;2062339;28;20210;-50
2022/10/22 03:27:20;;;;;;;1.10;0.97;;;;;19.10;99884.00;;;;2062080;28;20234;-49
2022/10/22 03:28:21;;;;;;;1.00;0.80;;;;;19.10;99886.00;;;;2062042;28;20214;-51
2022/10/22 03:29:21;;;;;;;1.53;0.97;;;;;19.10;99884.00;;;;2063174;28;20215;-51
2022/10/22 03:30:22;;;;;;;0.97;0.80;;;;;19.10;99882.00;;;;2062911;28;20578;-50
2022/10/22 03:31:22;;;;;;;1.40;0.80;;;;;19.10;99892.00;;;;2063044;28;20707;-50
2022/10/22 03:32:22;;;;;;;1.30;0.90;;;;;19.10;99892.00;;;;2061877;28;20218;-51
2022/10/22 03:33:23;;;;;;;1.10;0.90;;;;;19.10;99896.00;;;;2063194;28;20758;-51
2022/10/22 03:34:23;;;;;;;1.03;0.90;;;;;19.10;99895.00;;;;2062945;28;20215;-50
2022/10/22 03:35:23;;;;;;;0.87;0.80;;;;;19.10;99903.00;;;;2062971;28;20199;-51
2022/10/22 03:36:24;;;;;;;0.90;0.70;;;;;19.10;99904.00;;;;2062978;28;20297;-50
2022/10/22 03:37:24;;;;;;;0.80;0.77;;;;;19.10;99903.00;;;;2062237;28;20211;-50
2022/10/22 03:38:25;;;;;;;1.10;0.80;;;;;19.10;99900.00;;;;2061417;28;20302;-51
2022/10/22 03:39:25;;;;;;;1.43;1.00;;;;;19.10;99901.00;;;;2061748;28;20219;-51
2022/10/22 03:40:25;;;;;;;1.30;1.07;;;;;19.10;99906.00;;;;2069921;28;20206;-53
2022/10/22 03:41:26;;;;;;;1.70;0.90;;;;;19.10;99898.00;;;;2062515;28;20233;-51
2022/10/22 03:42:26;;;;;;;1.70;1.10;;;;;19.10;99911.00;;;;2060585;28;20211;-51
2022/10/22 03:43:27;;;;;;;1.57;0.90;;;;;19.10;99897.00;;;;2061359;28;20691;-51
2022/10/22 03:44:27;;;;;;;1.07;0.90;;;;;19.10;99915.00;;;;2061442;28;20633;-51
2022/10/22 03:45:27;;;;;;;1.40;0.97;;;;;19.10;99911.00;;;;2053841;28;20740;-52
2022/10/22 03:46:27;;;;;;;1.00;0.80;;;;;19.10;99918.00;;;;2061658;28;20699;-51
2022/10/22 03:47:28;;;;;;;1.20;1.00;;;;;19.10;99908.00;;;;2062042;28;20839;-51
2022/10/22 03:48:28;;;;;;;2.07;1.00;;;;;19.10;99909.00;;;;2061927;28;20226;-51
2022/10/22 03:49:29;;;;;;;1.00;0.90;;;;;19.10;99919.00;;;;2062216;28;20213;-51
2022/10/22 03:50:29;;;;;;;1.00;0.70;;;;;19.10;99920.00;;;;2062440;28;20227;-52
2022/10/22 03:51:29;;;;;;;1.00;0.80;;;;;19.10;99919.00;;;;2062800;28;20253;-50
2022/10/22 03:52:34;;;;;;;1.10;0.80;;;;;19.10;99918.00;;;;2061815;28;20207;-51
2022/10/22 03:53:35;;;;;;;1.20;1.00;;;;;19.10;99924.00;;;;2067494;28;20237;-52
2022/10/22 03:54:35;;;;;;;1.67;0.93;;;;;19.10;99925.00;;;;2070176;28;20248;-50
2022/10/22 03:55:37;;;;;;;1.00;0.80;;;;;19.10;99923.00;;;;2069793;28;20214;-51
2022/10/22 03:56:37;;;;;;;1.63;1.10;;;;;19.10;99923.00;;;;2070645;28;20210;-52
2022/10/22 03:57:37;;;;;;;1.20;0.83;;;;;19.10;99928.00;;;;2070544;28;20225;-50
2022/10/22 03:58:39;;;;;;;1.53;1.10;;;;;19.10;99918.00;;;;2070756;28;20621;-52
2022/10/22 03:59:41;;;;;;;1.00;0.90;;;;;19.10;99920.00;;;;2070535;28;20236;-51
2022/10/22 04:00:41;;;;;;;1.15;0.85;;;;;19.10;99921.00;;;;2070803;28;20210;-52
2022/10/22 04:01:41;;;;;;;2.07;0.80;;;;;19.10;99928.00;;;;2070479;28;20292;-50
2022/10/22 04:02:42;;;;;;;1.57;1.07;;;;;19.10;99924.00;;;;2069760;28;20652;-50
2022/10/22 04:03:42;;;;;;;1.50;1.00;;;;;19.10;99922.00;;;;2070833;28;20222;-51
2022/10/22 04:04:42;;;;;;;4.03;1.13;;;;;19.10;99927.00;;;;2070764;28;20265;-52
2022/10/22 04:05:43;;;;;;;1.00;0.90;;;;;19.10;99926.00;;;;2070436;28;20312;-51
2022/10/22 04:06:43;;;;;;;1.10;0.90;;;;;19.10;99919.00;;;;2071070;28;20419;-52
2022/10/22 04:07:43;;;;;;;0.90;0.73;;;;;19.10;99922.00;;;;2071517;28;20246;-51
2022/10/22 04:08:44;;;;;;;1.30;1.00;;;;;19.10;99932.00;;;;2071718;28;20222;-52
2022/10/22 04:09:44;;;;;;;1.20;0.90;;;;;19.10;99927.00;;;;2071724;28;20214;-49
2022/10/22 04:10:50;;;;;;;1.00;0.80;;;;;19.10;99924.00;;;;2071057;28;20279;-52
2022/10/22 04:11:50;;;;;;;1.10;0.77;;;;;19.10;99919.00;;;;2070698;28;20828;-51
2022/10/22 04:12:50;;;;;;;1.00;0.70;;;;;19.10;99929.00;;;;2071408;28;20242;-50
2022/10/22 04:13:51;;;;;;;1.10;0.70;;;;;19.10;99923.00;;;;2070869;28;20221;-50
2022/10/22 04:14:51;;;;;;;0.93;0.90;;;;;19.10;99929.00;;;;2065542;28;20527;-57
2022/10/22 04:15:51;;;;;;;1.50;0.90;;;;;19.10;99929.00;;;;2075809;28;20296;-57
2022/10/22 04:16:52;;;;;;;1.07;0.97;;;;;19.10;99929.00;;;;2078794;28;20205;-54
2022/10/22 04:17:52;;;;;;;1.60;1.00;;;;;19.10;99933.00;;;;2066821;28;20219;-54
2022/10/22 04:18:53;;;;;;;1.10;0.80;;;;;19.10;99874.00;;;;2062788;28;20243;-51
2022/10/22 04:19:53;;;;;;;1.33;0.90;;;;;19.10;99933.00;;;;2065255;28;20231;-50
2022/10/22 04:20:53;;;;;;;1.03;0.90;;;;;19.10;99933.00;;;;2063731;28;20659;-51
2022/10/22 04:21:54;;;;;;;1.23;0.90;;;;;19.10;99927.00;;;;2062938;28;20809;-51
2022/10/22 04:22:54;;;;;;;1.10;1.00;;;;;19.10;99936.00;;;;2061332;28;20227;-52
2022/10/22 04:23:54;;;;;;;0.90;0.77;;;;;19.10;99942.00;;;;2062691;28;20215;-52
2022/10/22 04:24:55;;;;;;;0.90;0.73;;;;;19.10;99934.00;;;;2071570;28;20228;-52
2022/10/22 04:26:03;;;;;;;1.10;1.00;;;;;19.10;99927.00;;;;2071664;28;20577;-50
2022/10/22 04:27:03;;;;;;;1.73;0.90;;;;;19.10;99936.00;;;;2071531;28;20213;-50
2022/10/22 04:28:07;;;;;;;2.03;1.10;;;;;19.10;99940.00;;;;2068049;28;20767;-51
2022/10/22 04:29:08;;;;;;;1.40;0.80;;;;;19.10;99931.00;;;;2063591;28;20214;-52
2022/10/22 04:30:08;;;;;;;0.80;0.67;;;;;19.10;99932.00;;;;2063159;28;20219;-51
2022/10/22 04:31:09;;;;;;;1.77;1.00;;;;;19.10;99934.00;;;;2063550;28;20215;-52
2022/10/22 04:32:10;;;;;;;1.00;0.90;;;;;19.10;99926.00;;;;2062202;28;20219;-51
2022/10/22 04:33:10;;;;;;;1.60;0.93;;;;;19.10;99942.00;;;;2063748;28;20524;-52
2022/10/22 04:34:10;;;;;;;1.20;0.87;;;;;19.10;99935.00;;;;2063717;28;20215;-52
2022/10/22 04:35:11;;;;;;;1.33;1.10;;;;;19.10;99941.00;;;;2063627;28;20249;-50
2022/10/22 04:36:13;;;;;;;1.17;0.93;;;;;19.10;99932.00;;;;2063505;28;20233;-51
2022/10/22 04:37:13;;;;;;;1.10;1.00;;;;;19.10;99939.00;;;;2067687;28;21183;-52
2022/10/22 04:38:13;;;;;;;1.33;1.23;;;;;19.10;99937.00;;;;2068936;28;20223;-50
2022/10/22 04:39:14;;;;;;;1.30;0.93;;;;;19.10;99936.00;;;;2071565;28;20225;-50
2022/10/22 04:40:14;;;;;;;2.30;1.07;;;;;19.10;99934.00;;;;2071482;28;20230;-51
2022/10/22 04:41:22;;;;;;;1.63;0.97;;;;;19.10;99936.00;;;;2071536;28;20252;-51
2022/10/22 04:42:22;;;;;;;1.73;0.80;;;;;19.10;99937.00;;;;2070578;28;20218;-51
2022/10/22 04:43:22;;;;;;;1.07;0.90;;;;;19.10;99935.00;;;;2070977;28;20214;-51
2022/10/22 04:44:23;;;;;;;1.37;0.97;;;;;19.10;99933.00;;;;2071216;28;20803;-50
2022/10/22 04:45:23;;;;;;;1.10;0.90;;;;;19.10;99929.00;;;;2071583;28;20273;-50
2022/10/22 04:46:24;;;;;;;1.40;1.10;;;;;19.10;99934.00;;;;2071137;28;20214;-51
2022/10/22 04:47:25;;;;;;;1.25;1.15;;;;;19.10;99933.00;;;;2071280;28;20228;-51
2022/10/22 04:48:25;;;;;;;1.70;1.00;;;;;19.10;99934.00;;;;2070992;28;20228;-50
2022/10/22 04:49:25;;;;;;;1.47;0.80;;;;;19.10;99931.00;;;;2071436;28;20229;-52
2022/10/22 04:50:26;;;;;;;1.00;0.80;;;;;19.10;99938.00;;;;2070734;28;20218;-52
2022/10/22 04:51:26;;;;;;;1.10;0.93;;;;;19.10;99943.00;;;;2070162;28;20699;-51
2022/10/22 04:52:26;;;;;;;1.30;0.90;;;;;19.10;99934.00;;;;2070542;28;20228;-52
2022/10/22 04:53:27;;;;;;;1.90;0.80;;;;;19.10;99947.00;;;;2071288;28;20222;-50
2022/10/22 04:54:27;;;;;;;1.00;0.90;;;;;19.10;99949.00;;;;2071679;28;20340;-50
2022/10/22 04:55:27;;;;;;;1.07;0.80;;;;;19.10;99951.00;;;;2070383;28;20434;-55
2022/10/22 04:56:28;;;;;;;1.27;0.90;;;;;19.10;99949.00;;;;2071444;28;20208;-55
2022/10/22 04:57:30;;;;;;;1.25;0.90;;;;;19.10;99952.00;;;;2068457;28;20218;-51
2022/10/22 04:58:30;;;;;;;1.55;0.98;;;;;19.10;99949.00;;;;2070878;28;20694;-52
2022/10/22 04:59:30;;;;;;;1.10;0.90;;;;;19.10;99950.00;;;;2070726;28;20222;-52
2022/10/22 05:00:30;;;;;;;1.40;0.80;;;;;19.10;99952.00;;;;2070747;28;20233;-52
2022/10/22 05:01:35;;;;;;;1.20;1.10;;;;;19.10;99950.00;;;;2071228;28;20300;-49
2022/10/22 05:02:36;;;;;;;1.20;0.80;;;;;19.10;99959.00;;;;2070597;28;20224;-51
2022/10/22 05:03:36;;;;;;;0.90;0.80;;;;;19.10;99949.00;;;;2071321;28;20240;-52
2022/10/22 05:04:36;;;;;;;1.10;0.70;;;;;19.10;99956.00;;;;2070881;28;20218;-52
2022/10/22 05:05:37;;;;;;;1.13;0.80;;;;;19.10;99948.00;;;;2070808;28;20214;-51
2022/10/22 05:06:37;;;;;;;1.73;1.03;;;;;19.10;99949.00;;;;2071265;28;20217;-52
2022/10/22 05:07:37;;;;;;;1.20;1.00;;;;;19.10;99963.00;;;;2064703;28;20245;-52
2022/10/22 05:08:38;;;;;;;0.97;0.80;;;;;19.10;99953.00;;;;2063270;28;20219;-52
2022/10/22 05:09:38;;;;;;;0.83;0.67;;;;;19.10;99955.00;;;;2071776;28;20217;-52
2022/10/22 05:10:38;;;;;;;1.33;0.90;;;;;19.10;99953.00;;;;2070888;28;20218;-51
2022/10/22 05:11:44;;;;;;;0.90;0.70;;;;;19.10;99954.00;;;;2071151;28;20916;-52
2022/10/22 05:12:44;;;;;;;1.83;0.60;;;;;19.10;99959.00;;;;2070795;28;20210;-51
2022/10/22 05:13:45;;;;;;;1.47;1.00;;;;;19.10;99965.00;;;;2070277;28;20202;-52